Arklow Rock — PBZM — position and weather

sailwx.info

Track history (hours):
 
Tides and Currents Weather Stations Pressure Air Temp Water Temp Dewpoint Dewpoint Depression Visibility Wind Speed Wind Dir Waves Ship Positions

Arklow Rock

Last reported at 2016-May-06 03:33 UTC. Time now 2016-May-06 03:37 UTC.
Position N 50°23' W 001°32'.

Length 90 m; draft 5.9 m.

Type: Cargo ship. MMSI: 246002000.

Date/timePositionNaut miles runAvg speedWind from/ knotsBaromVisibWave heightAir tempDewpointWater temp
2016-May-06 03:33N 50°23' W 001°32'1313.0
2016-May-06 02:33N 50°25' W 001°11'1413.9
2016-May-06 01:34N 50°27' W 000°50'1413.8
2016-May-06 00:34N 50°30' W 000°29'1312.7
2016-May-05 23:33N 50°32' W 000°09'1211.7
2016-May-05 22:33N 50°34' E 000°09'1110.6
2016-May-05 21:34N 50°37' E 000°25'3110.4
2016-May-05 18:33N 50°54' E 001°07'1413.6
2016-May-05 17:33N 51°02' E 001°23'1414.2
2016-May-05 16:34N 51°12' E 001°41'1212.2
2016-May-05 15:34N 51°21' E 001°52'1110.5
2016-May-05 14:34N 51°30' E 002°01'10 9.6
2016-May-05 13:33N 51°38' E 002°11'9 9.0
2016-May-05 12:31N 51°45' E 002°21'10 9.4
2016-May-05 11:27N 51°53' E 002°30'9 9.9
2016-May-05 10:33N 51°59' E 002°40'4211.9
2016-May-05 07:04N 52°32' E 003°22'712.7
2016-May-05 06:32N 52°37' E 003°30'1312.2
2016-May-05 05:30N 52°46' E 003°44'1111.3
2016-May-05 04:33N 52°54' E 003°55'1110.6
2016-May-05 03:33N 53°02' E 004°07'1010.2
2016-May-05 02:34N 53°09' E 004°20'10 9.5
2016-May-05 01:33N 53°17' E 004°29'1110.9
2016-May-05 00:31N 53°27' E 004°36'1211.7
2016-May-04 23:30N 53°32' E 004°55'1212.5
2016-May-04 22:33N 53°36' E 005°13'1212.3
2016-May-04 21:34N 53°41' E 005°33'1211.7
2016-May-04 20:34N 53°44' E 005°51'1110.9
2016-May-04 19:33N 53°47' E 006°09'1010.1
2016-May-04 18:33N 53°51' E 006°25'10 9.7
2016-May-04 17:33N 53°53' E 006°41'1010.0
2016-May-04 16:34N 53°55' E 006°58'1010.1
2016-May-04 15:34N 53°57' E 007°15'1211.6
2016-May-04 14:33N 54°00' E 007°34'1211.9
2016-May-04 13:33N 54°01' E 007°54'1211.6
2016-May-04 12:34N 54°00' E 008°14'1313.1
2016-May-04 11:33N 53°58' E 008°36'1110.6
2016-May-04 10:33N 53°51' E 008°48'9 9.0
2016-May-04 09:33N 53°52' E 009°03'4 3.6
2016-May-04 08:34N 53°54' E 009°09'2 1.6
2016-May-04 07:33N 53°55' E 009°11'8 7.7
2016-May-04 06:33N 54°01' E 009°18'29 7.1
2016-May-04 02:26N 54°21' E 009°55'6 6.9
2016-May-04 01:34N 54°22' E 010°05'3 2.8
2016-May-04 00:34N 54°22' E 010°10'10 8.9
2016-May-03 23:28N 54°30' E 010°19'1011.1
2016-May-03 22:32N 54°35' E 010°35'1110.9
2016-May-03 21:34N 54°36' E 010°53'1110.7
2016-May-03 20:34N 54°36' E 011°12'1111.5
2016-May-03 19:34N 54°31' E 011°30'1111.3
2016-May-03 18:34N 54°26' E 011°47'1110.9
2016-May-03 17:34N 54°19' E 012°01'9 8.8
2016-May-03 16:33N 54°10' E 012°06'2 1.2
2016-May-03 15:13N 54°09' E 012°07'0 0.0
2016-May-03 14:28N 54°09' E 012°07'0 0.0
2016-May-03 13:31N 54°09' E 012°07'0 0.0
2016-May-03 10:28N 54°09' E 012°07'0 0.0
2016-May-03 08:28N 54°09' E 012°07'0 0.0
2016-May-03 07:16N 54°09' E 012°07'0 0.0
2016-May-03 06:28N 54°09' E 012°07'0 0.0
2016-May-03 05:22N 54°09' E 012°07'0 0.0
2016-May-03 04:31N 54°09' E 012°07'0 0.0
2016-May-03 00:22N 54°09' E 012°07'0 0.0
2016-May-02 23:31N 54°09' E 012°07'0 0.0
2016-May-02 22:07N 54°09' E 012°07'0 0.0
2016-May-02 15:25N 54°09' E 012°07'0 0.0
2016-May-02 11:34N 54°09' E 012°07'0 0.0
2016-May-02 10:27N 54°09' E 012°07'0 0.0
2016-May-02 08:08N 54°09' E 012°07'0 0.0
2016-May-02 07:34N 54°09' E 012°07'1 0.6
2016-May-02 06:33N 54°10' E 012°07'9 8.7
2016-May-02 05:33N 54°17' E 011°59'1111.0
2016-May-02 04:33N 54°25' E 011°46'1111.0
2016-May-02 03:34N 54°30' E 011°29'1110.8
2016-May-02 02:33N 54°34' E 011°12'1110.8
2016-May-02 01:33N 54°34' E 010°54'1211.6
2016-May-02 00:33N 54°33' E 010°34'1111.2
2016-May-01 23:34N 54°29' E 010°16'8 7.9
2016-May-01 22:33N 54°22' E 010°08'5 4.6
2016-May-01 21:33N 54°21' E 010°01'7 7.4
2016-May-01 20:33N 54°22' E 009°48'27 6.7
2016-May-01 16:32N 54°01' E 009°18'8 8.2
2016-May-01 15:33N 53°55' E 009°11'2 2.0
2016-May-01 14:33N 53°53' E 009°08'2 2.2
2016-May-01 13:34N 53°53' E 009°05'8 8.2
2016-May-01 12:33N 53°50' E 008°51'8 8.1
2016-May-01 11:33N 53°55' E 008°40'9 9.2
2016-May-01 10:33N 53°59' E 008°26'1110.8
2016-May-01 09:33N 53°59' E 008°08'1111.3
2016-May-01 08:33N 53°57' E 007°49'1111.3
2016-May-01 07:33N 53°54' E 007°30'1111.5
2016-May-01 06:34N 53°51' E 007°12'1211.8
2016-May-01 05:33N 53°49' E 006°52'1211.9
2016-May-01 04:33N 53°46' E 006°33'1212.2
2016-May-01 03:33N 53°43' E 006°13'1212.5
2016-May-01 02:33N 53°39' E 005°53'1312.8
2016-May-01 01:33N 53°35' E 005°32'1313.1
2016-May-01 00:33N 53°31' E 005°11'16411.7
2016-Apr-30 10:33N 51°28' E 002°12'1010.1
2016-Apr-30 09:34N 51°24' E 001°58'1211.8
2016-Apr-30 08:34N 51°29' E 001°41'1313.2
2016-Apr-30 07:33N 51°29' E 001°19'1413.7
2016-Apr-30 06:33N 51°29' E 000°57'1211.8
2016-Apr-30 05:33N 51°25' E 000°39'6 5.7
2016-Apr-30 04:33N 51°23' E 000°31'0 0.3
2016-Apr-30 03:31N 51°24' E 000°31'0 0.0
2016-Apr-30 02:28N 51°24' E 000°31'0 0.0
2016-Apr-30 01:25N 51°24' E 000°31'0 0.0
2016-Apr-30 00:31N 51°24' E 000°31'0 0.0
2016-Apr-29 23:31N 51°24' E 000°31'0 0.0
2016-Apr-29 22:31N 51°24' E 000°31'0 0.0
2016-Apr-29 21:28N 51°24' E 000°31'0 0.0
2016-Apr-29 20:34N 51°24' E 000°31'0 0.0
2016-Apr-29 19:33N 51°24' E 000°31'0 0.0
2016-Apr-29 18:30N 51°24' E 000°31'0 0.0
2016-Apr-29 17:30N 51°24' E 000°31'0 0.0
2016-Apr-29 16:30N 51°24' E 000°31'0 0.0
2016-Apr-29 15:33N 51°24' E 000°31'0 0.0
2016-Apr-29 14:33N 51°24' E 000°31'0 0.0
2016-Apr-29 13:33N 51°24' E 000°31'0 0.0
2016-Apr-29 12:30N 51°24' E 000°31'0 0.0
2016-Apr-29 11:30N 51°24' E 000°31'0 0.0
2016-Apr-29 10:33N 51°24' E 000°31'0 0.0
2016-Apr-29 09:33N 51°24' E 000°31'0 0.0
2016-Apr-29 08:33N 51°24' E 000°31'0 0.0
2016-Apr-29 07:30N 51°24' E 000°31'0 0.0
2016-Apr-29 06:33N 51°24' E 000°31'0 0.0
2016-Apr-29 05:30N 51°24' E 000°31'0 0.0
2016-Apr-29 04:33N 51°24' E 000°31'0 0.0
2016-Apr-29 03:33N 51°24' E 000°31'0 0.0
2016-Apr-29 02:33N 51°24' E 000°31'0 0.0
2016-Apr-29 01:30N 51°24' E 000°31'0 0.0
2016-Apr-29 00:33N 51°24' E 000°31'0 0.0
2016-Apr-28 23:33N 51°24' E 000°31'0 0.0
2016-Apr-28 22:30N 51°24' E 000°31'0 0.0
2016-Apr-28 21:24N 51°24' E 000°31'0 0.0
2016-Apr-28 20:30N 51°24' E 000°31'0 0.0
2016-Apr-28 19:30N 51°24' E 000°31'0 0.0
2016-Apr-28 18:30N 51°24' E 000°31'0 0.0
2016-Apr-28 17:24N 51°24' E 000°31'0 0.0
2016-Apr-28 16:30N 51°24' E 000°31'0 0.0
2016-Apr-28 15:33N 51°24' E 000°31'0 0.0
2016-Apr-28 14:33N 51°24' E 000°31'0 0.0
2016-Apr-28 13:33N 51°24' E 000°31'0 0.0
2016-Apr-28 12:33N 51°24' E 000°31'0 0.0
2016-Apr-28 11:33N 51°24' E 000°31'0 0.0
2016-Apr-28 10:33N 51°24' E 000°31'0 0.0
2016-Apr-28 09:33N 51°24' E 000°31'0 0.0
2016-Apr-28 08:33N 51°24' E 000°31'0 0.0
2016-Apr-28 07:33N 51°24' E 000°31'0 0.0
2016-Apr-28 06:33N 51°24' E 000°31'0 0.0
2016-Apr-28 05:33N 51°24' E 000°31'0 0.0
2016-Apr-28 04:33N 51°24' E 000°31'0 0.0
2016-Apr-28 03:33N 51°24' E 000°31'0 0.1
2016-Apr-28 02:32N 51°24' E 000°31'2 2.0
2016-Apr-28 01:33N 51°24' E 000°34'9 8.7
2016-Apr-28 00:33N 51°28' E 000°46'8 6.5
2016-Apr-27 23:16N 51°30' E 000°59'0 0.1
2016-Apr-27 22:28N 51°30' E 000°59'0 0.1
2016-Apr-27 21:34N 51°30' E 000°59'2 1.9
2016-Apr-27 20:33N 51°30' E 001°02'10 9.6
2016-Apr-27 19:34N 51°29' E 001°17'9 8.9
2016-Apr-27 18:33N 51°26' E 001°31'1110.7
2016-Apr-27 17:33N 51°16' E 001°37'1010.0
2016-Apr-27 16:34N 51°07' E 001°40'6511.7
2016-Apr-27 11:03N 50°25' E 000°23'613.0
2016-Apr-27 10:33N 50°23' E 000°13'1212.1
2016-Apr-27 09:32N 50°21' W 000°06'1212.0
2016-Apr-27 08:34N 50°24' W 000°24'3010.1
2016-Apr-27 05:34N 50°29' W 001°11'6110.2
2016-Apr-26 23:34N 50°17' W 002°45'1212.2
2016-Apr-26 22:33N 50°15' W 003°04'1212.4
2016-Apr-26 21:34N 50°12' W 003°23'1312.7
2016-Apr-26 20:33N 50°10' W 003°42'1312.3
2016-Apr-26 19:30N 50°07' W 004°02'1111.7
2016-Apr-26 18:33N 50°04' W 004°19'1111.4
2016-Apr-26 17:34N 50°01' W 004°36'1111.2
2016-Apr-26 16:33N 49°58' W 004°53'  
Track history (hours):
 
Tides and Currents Weather Stations Pressure Air Temp Water Temp Dewpoint Dewpoint Depression Visibility Wind Speed Wind Dir Waves Ship Positions

Arklow Rock

Last reported at 2016-May-06 03:33 UTC. Time now 2016-May-06 03:37 UTC.
Position N 50°23' W 001°32'.

Length 90 m; draft 5.9 m.

Type: Cargo ship. MMSI: 246002000.

Date/timePositionNaut miles runAvg speedWind from/ knotsBaromVisibWave heightAir tempDewpointWater temp
2016-May-06 03:33N 50°23' W 001°32'1313.0
2016-May-06 02:33N 50°25' W 001°11'1413.9
2016-May-06 01:34N 50°27' W 000°50'1413.8
2016-May-06 00:34N 50°30' W 000°29'1312.7
2016-May-05 23:33N 50°32' W 000°09'1211.7
2016-May-05 22:33N 50°34' E 000°09'1110.6
2016-May-05 21:34N 50°37' E 000°25'3110.4
2016-May-05 18:33N 50°54' E 001°07'1413.6
2016-May-05 17:33N 51°02' E 001°23'1414.2
2016-May-05 16:34N 51°12' E 001°41'1212.2
2016-May-05 15:34N 51°21' E 001°52'1110.5
2016-May-05 14:34N 51°30' E 002°01'10 9.6
2016-May-05 13:33N 51°38' E 002°11'9 9.0
2016-May-05 12:31N 51°45' E 002°21'10 9.4
2016-May-05 11:27N 51°53' E 002°30'9 9.9
2016-May-05 10:33N 51°59' E 002°40'4211.9
2016-May-05 07:04N 52°32' E 003°22'712.7
2016-May-05 06:32N 52°37' E 003°30'1312.2
2016-May-05 05:30N 52°46' E 003°44'1111.3
2016-May-05 04:33N 52°54' E 003°55'1110.6
2016-May-05 03:33N 53°02' E 004°07'1010.2
2016-May-05 02:34N 53°09' E 004°20'10 9.5
2016-May-05 01:33N 53°17' E 004°29'1110.9
2016-May-05 00:31N 53°27' E 004°36'1211.7
2016-May-04 23:30N 53°32' E 004°55'1212.5
2016-May-04 22:33N 53°36' E 005°13'1212.3
2016-May-04 21:34N 53°41' E 005°33'1211.7
2016-May-04 20:34N 53°44' E 005°51'1110.9
2016-May-04 19:33N 53°47' E 006°09'1010.1
2016-May-04 18:33N 53°51' E 006°25'10 9.7
2016-May-04 17:33N 53°53' E 006°41'1010.0
2016-May-04 16:34N 53°55' E 006°58'1010.1
2016-May-04 15:34N 53°57' E 007°15'1211.6
2016-May-04 14:33N 54°00' E 007°34'1211.9
2016-May-04 13:33N 54°01' E 007°54'1211.6
2016-May-04 12:34N 54°00' E 008°14'1313.1
2016-May-04 11:33N 53°58' E 008°36'1110.6
2016-May-04 10:33N 53°51' E 008°48'9 9.0
2016-May-04 09:33N 53°52' E 009°03'4 3.6
2016-May-04 08:34N 53°54' E 009°09'2 1.6
2016-May-04 07:33N 53°55' E 009°11'8 7.7
2016-May-04 06:33N 54°01' E 009°18'29 7.1
2016-May-04 02:26N 54°21' E 009°55'6 6.9
2016-May-04 01:34N 54°22' E 010°05'3 2.8
2016-May-04 00:34N 54°22' E 010°10'10 8.9
2016-May-03 23:28N 54°30' E 010°19'1011.1
2016-May-03 22:32N 54°35' E 010°35'1110.9
2016-May-03 21:34N 54°36' E 010°53'1110.7
2016-May-03 20:34N 54°36' E 011°12'1111.5
2016-May-03 19:34N 54°31' E 011°30'1111.3
2016-May-03 18:34N 54°26' E 011°47'1110.9
2016-May-03 17:34N 54°19' E 012°01'9 8.8
2016-May-03 16:33N 54°10' E 012°06'2 1.2
2016-May-03 15:13N 54°09' E 012°07'0 0.0
2016-May-03 14:28N 54°09' E 012°07'0 0.0
2016-May-03 13:31N 54°09' E 012°07'0 0.0
2016-May-03 10:28N 54°09' E 012°07'0 0.0
2016-May-03 08:28N 54°09' E 012°07'0 0.0
2016-May-03 07:16N 54°09' E 012°07'0 0.0
2016-May-03 06:28N 54°09' E 012°07'0 0.0
2016-May-03 05:22N 54°09' E 012°07'0 0.0
2016-May-03 04:31N 54°09' E 012°07'0 0.0
2016-May-03 00:22N 54°09' E 012°07'0 0.0
2016-May-02 23:31N 54°09' E 012°07'0 0.0
2016-May-02 22:07N 54°09' E 012°07'0 0.0
2016-May-02 15:25N 54°09' E 012°07'0 0.0
2016-May-02 11:34N 54°09' E 012°07'0 0.0
2016-May-02 10:27N 54°09' E 012°07'0 0.0
2016-May-02 08:08N 54°09' E 012°07'0 0.0
2016-May-02 07:34N 54°09' E 012°07'1 0.6
2016-May-02 06:33N 54°10' E 012°07'9 8.7
2016-May-02 05:33N 54°17' E 011°59'1111.0
2016-May-02 04:33N 54°25' E 011°46'1111.0
2016-May-02 03:34N 54°30' E 011°29'1110.8
2016-May-02 02:33N 54°34' E 011°12'1110.8
2016-May-02 01:33N 54°34' E 010°54'1211.6
2016-May-02 00:33N 54°33' E 010°34'1111.2
2016-May-01 23:34N 54°29' E 010°16'8 7.9
2016-May-01 22:33N 54°22' E 010°08'5 4.6
2016-May-01 21:33N 54°21' E 010°01'7 7.4
2016-May-01 20:33N 54°22' E 009°48'27 6.7
2016-May-01 16:32N 54°01' E 009°18'8 8.2
2016-May-01 15:33N 53°55' E 009°11'2 2.0
2016-May-01 14:33N 53°53' E 009°08'2 2.2
2016-May-01 13:34N 53°53' E 009°05'8 8.2
2016-May-01 12:33N 53°50' E 008°51'8 8.1
2016-May-01 11:33N 53°55' E 008°40'9 9.2
2016-May-01 10:33N 53°59' E 008°26'1110.8
2016-May-01 09:33N 53°59' E 008°08'1111.3
2016-May-01 08:33N 53°57' E 007°49'1111.3
2016-May-01 07:33N 53°54' E 007°30'1111.5
2016-May-01 06:34N 53°51' E 007°12'1211.8
2016-May-01 05:33N 53°49' E 006°52'1211.9
2016-May-01 04:33N 53°46' E 006°33'1212.2
2016-May-01 03:33N 53°43' E 006°13'1212.5
2016-May-01 02:33N 53°39' E 005°53'1312.8
2016-May-01 01:33N 53°35' E 005°32'1313.1
2016-May-01 00:33N 53°31' E 005°11'16411.7
2016-Apr-30 10:33N 51°28' E 002°12'1010.1
2016-Apr-30 09:34N 51°24' E 001°58'1211.8
2016-Apr-30 08:34N 51°29' E 001°41'1313.2
2016-Apr-30 07:33N 51°29' E 001°19'1413.7
2016-Apr-30 06:33N 51°29' E 000°57'1211.8
2016-Apr-30 05:33N 51°25' E 000°39'6 5.7
2016-Apr-30 04:33N 51°23' E 000°31'0 0.3
2016-Apr-30 03:31N 51°24' E 000°31'0 0.0
2016-Apr-30 02:28N 51°24' E 000°31'0 0.0
2016-Apr-30 01:25N 51°24' E 000°31'0 0.0
2016-Apr-30 00:31N 51°24' E 000°31'0 0.0
2016-Apr-29 23:31N 51°24' E 000°31'0 0.0
2016-Apr-29 22:31N 51°24' E 000°31'0 0.0
2016-Apr-29 21:28N 51°24' E 000°31'0 0.0
2016-Apr-29 20:34N 51°24' E 000°31'0 0.0
2016-Apr-29 19:33N 51°24' E 000°31'0 0.0
2016-Apr-29 18:30N 51°24' E 000°31'0 0.0
2016-Apr-29 17:30N 51°24' E 000°31'0 0.0
2016-Apr-29 16:30N 51°24' E 000°31'0 0.0
2016-Apr-29 15:33N 51°24' E 000°31'0 0.0
2016-Apr-29 14:33N 51°24' E 000°31'0 0.0
2016-Apr-29 13:33N 51°24' E 000°31'0 0.0
2016-Apr-29 12:30N 51°24' E 000°31'0 0.0
2016-Apr-29 11:30N 51°24' E 000°31'0 0.0
2016-Apr-29 10:33N 51°24' E 000°31'0 0.0
2016-Apr-29 09:33N 51°24' E 000°31'0 0.0
2016-Apr-29 08:33N 51°24' E 000°31'0 0.0
2016-Apr-29 07:30N 51°24' E 000°31'0 0.0
2016-Apr-29 06:33N 51°24' E 000°31'0 0.0
2016-Apr-29 05:30N 51°24' E 000°31'0 0.0
2016-Apr-29 04:33N 51°24' E 000°31'0 0.0
2016-Apr-29 03:33N 51°24' E 000°31'0 0.0
2016-Apr-29 02:33N 51°24' E 000°31'0 0.0
2016-Apr-29 01:30N 51°24' E 000°31'0 0.0
2016-Apr-29 00:33N 51°24' E 000°31'0 0.0
2016-Apr-28 23:33N 51°24' E 000°31'0 0.0
2016-Apr-28 22:30N 51°24' E 000°31'0 0.0
2016-Apr-28 21:24N 51°24' E 000°31'0 0.0
2016-Apr-28 20:30N 51°24' E 000°31'0 0.0
2016-Apr-28 19:30N 51°24' E 000°31'0 0.0
2016-Apr-28 18:30N 51°24' E 000°31'0 0.0
2016-Apr-28 17:24N 51°24' E 000°31'0 0.0
2016-Apr-28 16:30N 51°24' E 000°31'0 0.0
2016-Apr-28 15:33N 51°24' E 000°31'0 0.0
2016-Apr-28 14:33N 51°24' E 000°31'0 0.0
2016-Apr-28 13:33N 51°24' E 000°31'0 0.0
2016-Apr-28 12:33N 51°24' E 000°31'0 0.0
2016-Apr-28 11:33N 51°24' E 000°31'0 0.0
2016-Apr-28 10:33N 51°24' E 000°31'0 0.0
2016-Apr-28 09:33N 51°24' E 000°31'0 0.0
2016-Apr-28 08:33N 51°24' E 000°31'0 0.0
2016-Apr-28 07:33N 51°24' E 000°31'0 0.0
2016-Apr-28 06:33N 51°24' E 000°31'0 0.0
2016-Apr-28 05:33N 51°24' E 000°31'0 0.0
2016-Apr-28 04:33N 51°24' E 000°31'0 0.0
2016-Apr-28 03:33N 51°24' E 000°31'0 0.1
2016-Apr-28 02:32N 51°24' E 000°31'2 2.0
2016-Apr-28 01:33N 51°24' E 000°34'9 8.7
2016-Apr-28 00:33N 51°28' E 000°46'8 6.5
2016-Apr-27 23:16N 51°30' E 000°59'0 0.1
2016-Apr-27 22:28N 51°30' E 000°59'0 0.1
2016-Apr-27 21:34N 51°30' E 000°59'2 1.9
2016-Apr-27 20:33N 51°30' E 001°02'10 9.6
2016-Apr-27 19:34N 51°29' E 001°17'9 8.9
2016-Apr-27 18:33N 51°26' E 001°31'1110.7
2016-Apr-27 17:33N 51°16' E 001°37'1010.0
2016-Apr-27 16:34N 51°07' E 001°40'6511.7
2016-Apr-27 11:03N 50°25' E 000°23'613.0
2016-Apr-27 10:33N 50°23' E 000°13'1212.1
2016-Apr-27 09:32N 50°21' W 000°06'1212.0
2016-Apr-27 08:34N 50°24' W 000°24'3010.1
2016-Apr-27 05:34N 50°29' W 001°11'6110.2
2016-Apr-26 23:34N 50°17' W 002°45'1212.2
2016-Apr-26 22:33N 50°15' W 003°04'1212.4
2016-Apr-26 21:34N 50°12' W 003°23'1312.7
2016-Apr-26 20:33N 50°10' W 003°42'1312.3
2016-Apr-26 19:30N 50°07' W 004°02'1111.7
2016-Apr-26 18:33N 50°04' W 004°19'1111.4
2016-Apr-26 17:34N 50°01' W 004°36'1111.2
2016-Apr-26 16:33N 49°58' W 004°53'  

Dump ship's entire track history